sensor_id;sensor_type;location;lat;lon;timestamp;temperature;humidity
4697;DHT22;2362;50.780;0.292;2022-09-27T00:01:54;11.00;99.90
4697;DHT22;2362;50.780;0.292;2022-09-27T00:04:20;11.10;99.90
4697;DHT22;2362;50.780;0.292;2022-09-27T00:06:46;11.10;99.90
4697;DHT22;2362;50.780;0.292;2022-09-27T00:09:11;11.10;99.90
4697;DHT22;2362;50.780;0.292;2022-09-27T00:11:38;11.00;99.90
4697;DHT22;2362;50.780;0.292;2022-09-27T00:14:05;11.10;99.90
4697;DHT22;2362;50.780;0.292;2022-09-27T00:16:31;11.10;99.90
4697;DHT22;2362;50.780;0.292;2022-09-27T00:18:58;11.00;99.90
4697;DHT22;2362;50.780;0.292;2022-09-27T00:21:24;11.00;99.90
4697;DHT22;2362;50.780;0.292;2022-09-27T00:23:50;11.00;99.90
4697;DHT22;2362;50.780;0.292;2022-09-27T00:26:16;10.90;99.90
4697;DHT22;2362;50.780;0.292;2022-09-27T00:28:41;10.90;99.90
4697;DHT22;2362;50.780;0.292;2022-09-27T00:31:13;10.80;99.90
4697;DHT22;2362;50.780;0.292;2022-09-27T00:33:41;10.80;99.90
4697;DHT22;2362;50.780;0.292;2022-09-27T00:36:08;10.80;99.90
4697;DHT22;2362;50.780;0.292;2022-09-27T00:38:34;10.80;99.90
4697;DHT22;2362;50.780;0.292;2022-09-27T00:40:59;10.90;99.90
4697;DHT22;2362;50.780;0.292;2022-09-27T00:43:25;10.80;99.90
4697;DHT22;2362;50.780;0.292;2022-09-27T00:45:55;10.80;99.90
4697;DHT22;2362;50.780;0.292;2022-09-27T00:48:23;10.80;99.90
4697;DHT22;2362;50.780;0.292;2022-09-27T00:50:51;10.80;99.90
4697;DHT22;2362;50.780;0.292;2022-09-27T00:53:29;10.90;99.90
4697;DHT22;2362;50.780;0.292;2022-09-27T00:56:03;10.90;99.90
4697;DHT22;2362;50.780;0.292;2022-09-27T00:58:31;10.90;99.90
4697;DHT22;2362;50.780;0.292;2022-09-27T01:00:59;10.90;99.90
4697;DHT22;2362;50.780;0.292;2022-09-27T01:03:39;10.90;99.90
4697;DHT22;2362;50.780;0.292;2022-09-27T01:06:07;10.90;99.90
4697;DHT22;2362;50.780;0.292;2022-09-27T01:08:33;10.80;99.90
4697;DHT22;2362;50.780;0.292;2022-09-27T01:30:12;10.70;99.90
4697;DHT22;2362;50.780;0.292;2022-09-27T01:40:40;10.50;99.90
4697;DHT22;2362;50.780;0.292;2022-09-27T01:43:09;10.50;99.90
4697;DHT22;2362;50.780;0.292;2022-09-27T01:45:37;10.50;99.90
4697;DHT22;2362;50.780;0.292;2022-09-27T01:48:23;10.40;99.90
4697;DHT22;2362;50.780;0.292;2022-09-27T01:50:58;10.40;99.90
4697;DHT22;2362;50.780;0.292;2022-09-27T01:53:27;10.40;99.90
4697;DHT22;2362;50.780;0.292;2022-09-27T01:55:54;10.30;99.90
4697;DHT22;2362;50.780;0.292;2022-09-27T01:58:38;10.30;99.90
4697;DHT22;2362;50.780;0.292;2022-09-27T02:01:05;10.30;99.90
4697;DHT22;2362;50.780;0.292;2022-09-27T02:03:38;10.20;99.90
4697;DHT22;2362;50.780;0.292;2022-09-27T02:06:09;10.20;99.90
4697;DHT22;2362;50.780;0.292;2022-09-27T02:08:43;10.20;99.90
4697;DHT22;2362;50.780;0.292;2022-09-27T02:11:10;10.20;99.90
4697;DHT22;2362;50.780;0.292;2022-09-27T02:13:47;10.20;99.90
4697;DHT22;2362;50.780;0.292;2022-09-27T02:21:13;10.20;99.90
4697;DHT22;2362;50.780;0.292;2022-09-27T02:23:43;10.20;99.90
4697;DHT22;2362;50.780;0.292;2022-09-27T02:26:15;10.10;99.90
4697;DHT22;2362;50.780;0.292;2022-09-27T02:29:04;10.00;99.90
4697;DHT22;2362;50.780;0.292;2022-09-27T02:31:28;10.00;99.90
4697;DHT22;2362;50.780;0.292;2022-09-27T02:34:01;9.90;99.90
4697;DHT22;2362;50.780;0.292;2022-09-27T02:36:27;9.90;99.90
4697;DHT22;2362;50.780;0.292;2022-09-27T02:38:53;9.90;99.90
4697;DHT22;2362;50.780;0.292;2022-09-27T02:41:20;9.90;99.90
4697;DHT22;2362;50.780;0.292;2022-09-27T02:43:47;9.90;99.90
4697;DHT22;2362;50.780;0.292;2022-09-27T02:57:12;9.80;99.90
4697;DHT22;2362;50.780;0.292;2022-09-27T02:59:47;9.80;99.90
4697;DHT22;2362;50.780;0.292;2022-09-27T03:05:00;9.60;99.90
4697;DHT22;2362;50.780;0.292;2022-09-27T03:07:27;9.60;99.90
4697;DHT22;2362;50.780;0.292;2022-09-27T03:09:53;9.50;99.90
4697;DHT22;2362;50.780;0.292;2022-09-27T03:12:19;9.50;99.90
4697;DHT22;2362;50.780;0.292;2022-09-27T03:14:57;9.50;99.90
4697;DHT22;2362;50.780;0.292;2022-09-27T03:17:24;9.50;99.90
4697;DHT22;2362;50.780;0.292;2022-09-27T03:19:49;9.50;99.90
4697;DHT22;2362;50.780;0.292;2022-09-27T03:22:15;9.50;99.90
4697;DHT22;2362;50.780;0.292;2022-09-27T03:24:41;9.50;99.90
4697;DHT22;2362;50.780;0.292;2022-09-27T03:27:07;9.50;99.90
4697;DHT22;2362;50.780;0.292;2022-09-27T03:29:33;9.50;99.90
4697;DHT22;2362;50.780;0.292;2022-09-27T03:31:58;9.50;99.90
4697;DHT22;2362;50.780;0.292;2022-09-27T03:34:24;9.50;99.90
4697;DHT22;2362;50.780;0.292;2022-09-27T03:36:50;9.50;99.90
4697;DHT22;2362;50.780;0.292;2022-09-27T03:39:15;9.50;99.90
4697;DHT22;2362;50.780;0.292;2022-09-27T03:41:41;9.60;99.90
4697;DHT22;2362;50.780;0.292;2022-09-27T03:44:07;9.50;99.90
4697;DHT22;2362;50.780;0.292;2022-09-27T03:46:32;9.60;99.90
4697;DHT22;2362;50.780;0.292;2022-09-27T03:48:58;9.60;99.90
4697;DHT22;2362;50.780;0.292;2022-09-27T03:51:24;9.60;99.90
4697;DHT22;2362;50.780;0.292;2022-09-27T03:53:50;9.60;99.90
4697;DHT22;2362;50.780;0.292;2022-09-27T03:56:15;9.60;99.90
4697;DHT22;2362;50.780;0.292;2022-09-27T03:58:41;9.60;99.90
4697;DHT22;2362;50.780;0.292;2022-09-27T04:01:07;9.60;99.90
4697;DHT22;2362;50.780;0.292;2022-09-27T04:03:33;9.50;99.90
4697;DHT22;2362;50.780;0.292;2022-09-27T04:06:01;9.50;99.90
4697;DHT22;2362;50.780;0.292;2022-09-27T04:08:26;9.50;99.90
4697;DHT22;2362;50.780;0.292;2022-09-27T04:10:52;9.60;99.90
4697;DHT22;2362;50.780;0.292;2022-09-27T04:13:18;9.60;99.90
4697;DHT22;2362;50.780;0.292;2022-09-27T04:15:43;9.70;99.90
4697;DHT22;2362;50.780;0.292;2022-09-27T04:18:09;9.70;99.90
4697;DHT22;2362;50.780;0.292;2022-09-27T04:20:35;9.70;99.90
4697;DHT22;2362;50.780;0.292;2022-09-27T04:23:01;9.70;99.90
4697;DHT22;2362;50.780;0.292;2022-09-27T04:25:27;9.80;99.90
4697;DHT22;2362;50.780;0.292;2022-09-27T04:27:53;9.70;99.90
4697;DHT22;2362;50.780;0.292;2022-09-27T04:30:20;9.80;99.90
4697;DHT22;2362;50.780;0.292;2022-09-27T04:32:46;9.80;99.90
4697;DHT22;2362;50.780;0.292;2022-09-27T04:35:11;9.70;99.90
4697;DHT22;2362;50.780;0.292;2022-09-27T04:37:56;9.70;99.90
4697;DHT22;2362;50.780;0.292;2022-09-27T04:40:21;9.70;99.90
4697;DHT22;2362;50.780;0.292;2022-09-27T04:42:48;9.60;99.90
4697;DHT22;2362;50.780;0.292;2022-09-27T04:45:13;9.60;99.90
4697;DHT22;2362;50.780;0.292;2022-09-27T04:47:43;9.70;99.90
4697;DHT22;2362;50.780;0.292;2022-09-27T04:50:09;9.60;99.90
4697;DHT22;2362;50.780;0.292;2022-09-27T04:52:34;9.60;99.90
4697;DHT22;2362;50.780;0.292;2022-09-27T04:55:00;9.60;99.90
4697;DHT22;2362;50.780;0.292;2022-09-27T04:57:50;9.50;99.90
4697;DHT22;2362;50.780;0.292;2022-09-27T05:00:42;9.40;99.90
4697;DHT22;2362;50.780;0.292;2022-09-27T05:03:08;9.40;99.90
4697;DHT22;2362;50.780;0.292;2022-09-27T05:05:33;9.40;99.90
4697;DHT22;2362;50.780;0.292;2022-09-27T05:07:59;9.50;99.90
4697;DHT22;2362;50.780;0.292;2022-09-27T05:10:25;9.60;99.90
4697;DHT22;2362;50.780;0.292;2022-09-27T05:12:50;9.60;99.90
4697;DHT22;2362;50.780;0.292;2022-09-27T05:15:16;9.70;99.90
4697;DHT22;2362;50.780;0.292;2022-09-27T05:17:41;9.70;99.90
4697;DHT22;2362;50.780;0.292;2022-09-27T05:20:07;9.80;99.90
4697;DHT22;2362;50.780;0.292;2022-09-27T05:22:35;9.90;99.90
4697;DHT22;2362;50.780;0.292;2022-09-27T05:25:00;9.80;99.90
4697;DHT22;2362;50.780;0.292;2022-09-27T05:27:51;9.90;99.90
4697;DHT22;2362;50.780;0.292;2022-09-27T05:30:17;9.90;99.90
4697;DHT22;2362;50.780;0.292;2022-09-27T05:32:43;9.90;99.90
4697;DHT22;2362;50.780;0.292;2022-09-27T05:35:10;10.00;99.90
4697;DHT22;2362;50.780;0.292;2022-09-27T05:37:35;10.00;99.90
4697;DHT22;2362;50.780;0.292;2022-09-27T05:40:01;10.00;99.90
4697;DHT22;2362;50.780;0.292;2022-09-27T05:42:27;10.00;99.90
4697;DHT22;2362;50.780;0.292;2022-09-27T05:44:53;10.00;99.90
4697;DHT22;2362;50.780;0.292;2022-09-27T05:47:18;9.90;99.90
4697;DHT22;2362;50.780;0.292;2022-09-27T05:49:44;10.00;99.90
4697;DHT22;2362;50.780;0.292;2022-09-27T05:52:10;10.00;99.90
4697;DHT22;2362;50.780;0.292;2022-09-27T05:54:35;10.00;99.90
4697;DHT22;2362;50.780;0.292;2022-09-27T05:57:01;10.00;99.90
4697;DHT22;2362;50.780;0.292;2022-09-27T05:59:26;10.00;99.90
4697;DHT22;2362;50.780;0.292;2022-09-27T06:01:55;10.10;99.90
4697;DHT22;2362;50.780;0.292;2022-09-27T06:04:21;10.10;99.90
4697;DHT22;2362;50.780;0.292;2022-09-27T06:06:46;10.20;99.90
4697;DHT22;2362;50.780;0.292;2022-09-27T06:09:13;10.20;99.90
4697;DHT22;2362;50.780;0.292;2022-09-27T06:11:39;10.20;99.90
4697;DHT22;2362;50.780;0.292;2022-09-27T06:14:05;10.20;99.90
4697;DHT22;2362;50.780;0.292;2022-09-27T06:16:31;10.30;99.90
4697;DHT22;2362;50.780;0.292;2022-09-27T06:18:56;10.30;99.90
4697;DHT22;2362;50.780;0.292;2022-09-27T06:21:22;10.40;99.90
4697;DHT22;2362;50.780;0.292;2022-09-27T06:23:48;10.40;99.90
4697;DHT22;2362;50.780;0.292;2022-09-27T06:26:14;10.40;99.90
4697;DHT22;2362;50.780;0.292;2022-09-27T06:28:40;10.40;99.90
4697;DHT22;2362;50.780;0.292;2022-09-27T06:31:06;10.50;99.90
4697;DHT22;2362;50.780;0.292;2022-09-27T06:33:33;10.40;99.90
4697;DHT22;2362;50.780;0.292;2022-09-27T06:36:03;10.50;99.90
4697;DHT22;2362;50.780;0.292;2022-09-27T06:38:29;10.50;99.90
4697;DHT22;2362;50.780;0.292;2022-09-27T06:40:54;10.50;99.90
4697;DHT22;2362;50.780;0.292;2022-09-27T06:43:22;10.60;99.90
4697;DHT22;2362;50.780;0.292;2022-09-27T06:45:48;10.60;99.90
4697;DHT22;2362;50.780;0.292;2022-09-27T06:48:14;10.60;99.90
4697;DHT22;2362;50.780;0.292;2022-09-27T06:50:41;10.70;99.90
4697;DHT22;2362;50.780;0.292;2022-09-27T06:53:08;10.70;99.90
4697;DHT22;2362;50.780;0.292;2022-09-27T06:55:38;10.70;99.90
4697;DHT22;2362;50.780;0.292;2022-09-27T06:58:04;10.70;99.90
4697;DHT22;2362;50.780;0.292;2022-09-27T07:00:48;10.70;99.90
4697;DHT22;2362;50.780;0.292;2022-09-27T07:03:14;10.80;99.90
4697;DHT22;2362;50.780;0.292;2022-09-27T07:06:07;10.90;99.90
4697;DHT22;2362;50.780;0.292;2022-09-27T07:08:36;11.10;99.90
4697;DHT22;2362;50.780;0.292;2022-09-27T07:11:04;11.20;99.90
4697;DHT22;2362;50.780;0.292;2022-09-27T07:13:30;11.30;99.90
4697;DHT22;2362;50.780;0.292;2022-09-27T07:15:57;11.20;99.90
4697;DHT22;2362;50.780;0.292;2022-09-27T07:18:23;11.20;99.90
4697;DHT22;2362;50.780;0.292;2022-09-27T07:20:49;11.30;99.90
4697;DHT22;2362;50.780;0.292;2022-09-27T07:23:15;11.30;99.90
4697;DHT22;2362;50.780;0.292;2022-09-27T07:25:41;11.50;99.90
4697;DHT22;2362;50.780;0.292;2022-09-27T07:28:08;11.50;99.90
4697;DHT22;2362;50.780;0.292;2022-09-27T07:30:35;11.60;99.90
4697;DHT22;2362;50.780;0.292;2022-09-27T07:33:02;11.80;99.90
4697;DHT22;2362;50.780;0.292;2022-09-27T07:35:52;11.70;99.90
4697;DHT22;2362;50.780;0.292;2022-09-27T07:38:18;11.60;99.90
4697;DHT22;2362;50.780;0.292;2022-09-27T07:40:44;12.10;99.90
4697;DHT22;2362;50.780;0.292;2022-09-27T07:43:10;12.60;99.90
4697;DHT22;2362;50.780;0.292;2022-09-27T07:45:36;12.90;99.90
4697;DHT22;2362;50.780;0.292;2022-09-27T07:48:03;13.10;99.90
4697;DHT22;2362;50.780;0.292;2022-09-27T07:50:29;13.40;99.90
4697;DHT22;2362;50.780;0.292;2022-09-27T07:52:54;13.50;99.90
4697;DHT22;2362;50.780;0.292;2022-09-27T07:55:20;13.30;99.90
4697;DHT22;2362;50.780;0.292;2022-09-27T07:57:46;13.20;99.90
4697;DHT22;2362;50.780;0.292;2022-09-27T08:00:12;13.20;99.90
4697;DHT22;2362;50.780;0.292;2022-09-27T08:02:42;13.10;99.90
4697;DHT22;2362;50.780;0.292;2022-09-27T08:05:09;13.40;99.90
4697;DHT22;2362;50.780;0.292;2022-09-27T08:07:34;13.10;99.90
4697;DHT22;2362;50.780;0.292;2022-09-27T08:10:00;12.80;99.90
4697;DHT22;2362;50.780;0.292;2022-09-27T08:12:26;12.50;99.90
4697;DHT22;2362;50.780;0.292;2022-09-27T08:14:52;12.20;99.90
4697;DHT22;2362;50.780;0.292;2022-09-27T08:17:17;12.10;99.90
4697;DHT22;2362;50.780;0.292;2022-09-27T08:19:43;12.00;99.90
4697;DHT22;2362;50.780;0.292;2022-09-27T08:22:10;11.90;99.90
4697;DHT22;2362;50.780;0.292;2022-09-27T08:24:37;12.00;99.90
4697;DHT22;2362;50.780;0.292;2022-09-27T08:27:02;12.20;99.90
4697;DHT22;2362;50.780;0.292;2022-09-27T08:29:29;12.30;99.90
4697;DHT22;2362;50.780;0.292;2022-09-27T08:31:55;12.40;99.90
4697;DHT22;2362;50.780;0.292;2022-09-27T08:34:21;12.40;99.90
4697;DHT22;2362;50.780;0.292;2022-09-27T08:36:46;12.50;99.90
4697;DHT22;2362;50.780;0.292;2022-09-27T08:39:12;12.60;99.90
4697;DHT22;2362;50.780;0.292;2022-09-27T08:41:41;12.60;99.90
4697;DHT22;2362;50.780;0.292;2022-09-27T08:47:48;12.60;99.90
4697;DHT22;2362;50.780;0.292;2022-09-27T08:55:03;12.70;99.90
4697;DHT22;2362;50.780;0.292;2022-09-27T08:57:30;12.60;99.90
4697;DHT22;2362;50.780;0.292;2022-09-27T09:00:11;12.60;99.90
4697;DHT22;2362;50.780;0.292;2022-09-27T09:02:37;12.50;99.90
4697;DHT22;2362;50.780;0.292;2022-09-27T09:05:07;12.50;99.90
4697;DHT22;2362;50.780;0.292;2022-09-27T09:10:04;12.60;99.90
4697;DHT22;2362;50.780;0.292;2022-09-27T09:23:45;13.00;99.90
4697;DHT22;2362;50.780;0.292;2022-09-27T09:29:15;13.10;99.90
4697;DHT22;2362;50.780;0.292;2022-09-27T09:34:23;13.50;99.90
4697;DHT22;2362;50.780;0.292;2022-09-27T09:39:37;13.60;99.90
4697;DHT22;2362;50.780;0.292;2022-09-27T09:44:33;13.60;99.90
4697;DHT22;2362;50.780;0.292;2022-09-27T09:47:03;13.70;99.90
4697;DHT22;2362;50.780;0.292;2022-09-27T09:49:41;13.60;99.90
4697;DHT22;2362;50.780;0.292;2022-09-27T09:52:14;13.60;99.90
4697;DHT22;2362;50.780;0.292;2022-09-27T09:59:57;13.60;99.90
4697;DHT22;2362;50.780;0.292;2022-09-27T10:02:39;13.60;99.90
4697;DHT22;2362;50.780;0.292;2022-09-27T10:05:05;13.50;99.90
4697;DHT22;2362;50.780;0.292;2022-09-27T10:07:32;13.70;99.90
4697;DHT22;2362;50.780;0.292;2022-09-27T10:09:59;13.70;99.90
4697;DHT22;2362;50.780;0.292;2022-09-27T10:12:28;13.80;99.90
4697;DHT22;2362;50.780;0.292;2022-09-27T10:14:54;13.70;99.90
4697;DHT22;2362;50.780;0.292;2022-09-27T10:17:23;13.70;99.90
4697;DHT22;2362;50.780;0.292;2022-09-27T10:19:49;13.60;99.90
4697;DHT22;2362;50.780;0.292;2022-09-27T10:22:23;13.60;99.90
4697;DHT22;2362;50.780;0.292;2022-09-27T10:24:55;13.70;99.90
4697;DHT22;2362;50.780;0.292;2022-09-27T10:27:21;13.70;99.90
4697;DHT22;2362;50.780;0.292;2022-09-27T10:29:51;13.80;99.90
4697;DHT22;2362;50.780;0.292;2022-09-27T10:32:21;14.00;99.90
4697;DHT22;2362;50.780;0.292;2022-09-27T10:34:49;14.10;99.90
4697;DHT22;2362;50.780;0.292;2022-09-27T10:37:17;14.20;99.90
4697;DHT22;2362;50.780;0.292;2022-09-27T10:39:44;14.40;99.90
4697;DHT22;2362;50.780;0.292;2022-09-27T10:42:19;14.40;99.90
4697;DHT22;2362;50.780;0.292;2022-09-27T10:44:45;14.50;99.90
4697;DHT22;2362;50.780;0.292;2022-09-27T10:47:12;14.70;99.90
4697;DHT22;2362;50.780;0.292;2022-09-27T10:49:40;14.70;99.90
4697;DHT22;2362;50.780;0.292;2022-09-27T10:52:07;14.60;99.90
4697;DHT22;2362;50.780;0.292;2022-09-27T10:54:39;14.50;99.90
4697;DHT22;2362;50.780;0.292;2022-09-27T10:57:09;14.40;99.90
4697;DHT22;2362;50.780;0.292;2022-09-27T10:59:41;14.40;99.90
4697;DHT22;2362;50.780;0.292;2022-09-27T11:02:18;14.60;99.90
4697;DHT22;2362;50.780;0.292;2022-09-27T11:04:55;14.50;99.90
4697;DHT22;2362;50.780;0.292;2022-09-27T11:07:26;14.60;99.90
4697;DHT22;2362;50.780;0.292;2022-09-27T11:09:52;14.70;99.90
4697;DHT22;2362;50.780;0.292;2022-09-27T11:12:19;14.70;99.90
4697;DHT22;2362;50.780;0.292;2022-09-27T11:15:05;14.80;99.90
4697;DHT22;2362;50.780;0.292;2022-09-27T11:23:03;14.80;99.90
4697;DHT22;2362;50.780;0.292;2022-09-27T11:47:01;13.90;99.90
4697;DHT22;2362;50.780;0.292;2022-09-27T11:52:02;14.10;99.90
4697;DHT22;2362;50.780;0.292;2022-09-27T11:57:11;14.50;99.90
4697;DHT22;2362;50.780;0.292;2022-09-27T12:05:42;14.50;99.90
4697;DHT22;2362;50.780;0.292;2022-09-27T12:10:32;14.20;99.90
4697;DHT22;2362;50.780;0.292;2022-09-27T12:12:59;14.30;99.90
4697;DHT22;2362;50.780;0.292;2022-09-27T12:15:26;14.40;99.90
4697;DHT22;2362;50.780;0.292;2022-09-27T12:17:55;14.20;99.90
4697;DHT22;2362;50.780;0.292;2022-09-27T12:20:22;14.10;99.90
4697;DHT22;2362;50.780;0.292;2022-09-27T12:25:22;14.30;99.90
4697;DHT22;2362;50.780;0.292;2022-09-27T12:27:48;14.40;99.90
4697;DHT22;2362;50.780;0.292;2022-09-27T12:30:16;14.50;99.90
4697;DHT22;2362;50.780;0.292;2022-09-27T12:35:27;14.50;99.90
4697;DHT22;2362;50.780;0.292;2022-09-27T12:42:59;14.70;99.90
4697;DHT22;2362;50.780;0.292;2022-09-27T12:45:38;14.60;99.90
4697;DHT22;2362;50.780;0.292;2022-09-27T12:53:11;14.70;99.90
4697;DHT22;2362;50.780;0.292;2022-09-27T12:58:11;14.80;99.90
4697;DHT22;2362;50.780;0.292;2022-09-27T13:00:44;14.80;99.90
4697;DHT22;2362;50.780;0.292;2022-09-27T13:13:56;15.00;99.90
4697;DHT22;2362;50.780;0.292;2022-09-27T13:16:24;15.10;99.90
4697;DHT22;2362;50.780;0.292;2022-09-27T13:18:51;15.20;99.90
4697;DHT22;2362;50.780;0.292;2022-09-27T13:21:52;15.30;99.90
4697;DHT22;2362;50.780;0.292;2022-09-27T13:26:54;15.60;99.90
4697;DHT22;2362;50.780;0.292;2022-09-27T13:29:24;15.60;99.90
4697;DHT22;2362;50.780;0.292;2022-09-27T13:37:25;15.20;99.90
4697;DHT22;2362;50.780;0.292;2022-09-27T13:42:39;15.00;99.90
4697;DHT22;2362;50.780;0.292;2022-09-27T13:45:16;14.80;99.90
4697;DHT22;2362;50.780;0.292;2022-09-27T13:47:44;14.70;99.90
4697;DHT22;2362;50.780;0.292;2022-09-27T13:50:36;14.70;99.90
4697;DHT22;2362;50.780;0.292;2022-09-27T13:53:11;14.80;99.90
4697;DHT22;2362;50.780;0.292;2022-09-27T13:55:46;14.80;99.90
4697;DHT22;2362;50.780;0.292;2022-09-27T14:00:44;14.50;99.90
4697;DHT22;2362;50.780;0.292;2022-09-27T14:03:31;14.40;99.90
4697;DHT22;2362;50.780;0.292;2022-09-27T14:06:02;14.40;99.90
4697;DHT22;2362;50.780;0.292;2022-09-27T14:08:55;14.50;99.90
4697;DHT22;2362;50.780;0.292;2022-09-27T14:11:49;14.70;99.90
4697;DHT22;2362;50.780;0.292;2022-09-27T14:14:18;14.70;99.90
4697;DHT22;2362;50.780;0.292;2022-09-27T14:16:45;14.80;99.90
4697;DHT22;2362;50.780;0.292;2022-09-27T14:19:18;14.90;99.90
4697;DHT22;2362;50.780;0.292;2022-09-27T14:21:45;14.90;99.90
4697;DHT22;2362;50.780;0.292;2022-09-27T14:24:22;14.80;99.90
4697;DHT22;2362;50.780;0.292;2022-09-27T14:26:48;14.80;99.90
4697;DHT22;2362;50.780;0.292;2022-09-27T14:29:15;14.60;99.90
4697;DHT22;2362;50.780;0.292;2022-09-27T14:31:41;14.50;99.90
4697;DHT22;2362;50.780;0.292;2022-09-27T14:34:07;14.40;99.90
4697;DHT22;2362;50.780;0.292;2022-09-27T14:36:35;14.40;99.90
4697;DHT22;2362;50.780;0.292;2022-09-27T14:39:27;14.40;99.90
4697;DHT22;2362;50.780;0.292;2022-09-27T14:41:55;14.50;99.90
4697;DHT22;2362;50.780;0.292;2022-09-27T14:44:21;14.60;99.90
4697;DHT22;2362;50.780;0.292;2022-09-27T14:46:48;14.60;99.90
4697;DHT22;2362;50.780;0.292;2022-09-27T14:49:31;14.70;99.90
4697;DHT22;2362;50.780;0.292;2022-09-27T14:51:57;14.70;99.90
4697;DHT22;2362;50.780;0.292;2022-09-27T14:54:25;14.70;99.90
4697;DHT22;2362;50.780;0.292;2022-09-27T14:56:51;14.80;99.90
4697;DHT22;2362;50.780;0.292;2022-09-27T14:59:21;14.80;99.90
4697;DHT22;2362;50.780;0.292;2022-09-27T15:01:51;14.80;99.90
4697;DHT22;2362;50.780;0.292;2022-09-27T15:04:17;14.80;99.90
4697;DHT22;2362;50.780;0.292;2022-09-27T15:06:44;14.80;99.90
4697;DHT22;2362;50.780;0.292;2022-09-27T15:09:11;14.80;99.90
4697;DHT22;2362;50.780;0.292;2022-09-27T15:11:39;14.80;99.90
4697;DHT22;2362;50.780;0.292;2022-09-27T15:14:06;14.80;99.90
4697;DHT22;2362;50.780;0.292;2022-09-27T15:16:36;14.80;99.90
4697;DHT22;2362;50.780;0.292;2022-09-27T15:19:10;14.70;99.90
4697;DHT22;2362;50.780;0.292;2022-09-27T15:21:38;14.60;99.90
4697;DHT22;2362;50.780;0.292;2022-09-27T15:24:04;14.50;99.90
4697;DHT22;2362;50.780;0.292;2022-09-27T15:29:00;14.10;99.90
4697;DHT22;2362;50.780;0.292;2022-09-27T15:31:32;14.00;99.90
4697;DHT22;2362;50.780;0.292;2022-09-27T15:33:59;13.90;99.90
4697;DHT22;2362;50.780;0.292;2022-09-27T15:39:06;13.90;99.90
4697;DHT22;2362;50.780;0.292;2022-09-27T15:44:34;13.70;99.90
4697;DHT22;2362;50.780;0.292;2022-09-27T15:47:00;13.70;99.90
4697;DHT22;2362;50.780;0.292;2022-09-27T15:49:27;13.60;99.90
4697;DHT22;2362;50.780;0.292;2022-09-27T15:51:58;13.60;99.90
4697;DHT22;2362;50.780;0.292;2022-09-27T15:54:25;13.60;99.90
4697;DHT22;2362;50.780;0.292;2022-09-27T15:56:52;13.60;99.90
4697;DHT22;2362;50.780;0.292;2022-09-27T15:59:27;13.50;99.90
4697;DHT22;2362;50.780;0.292;2022-09-27T16:01:57;13.40;99.90
4697;DHT22;2362;50.780;0.292;2022-09-27T16:04:23;13.40;99.90
4697;DHT22;2362;50.780;0.292;2022-09-27T16:06:50;13.40;99.90
4697;DHT22;2362;50.780;0.292;2022-09-27T16:09:17;13.40;99.90
4697;DHT22;2362;50.780;0.292;2022-09-27T16:11:46;13.40;99.90
4697;DHT22;2362;50.780;0.292;2022-09-27T16:14:12;13.50;99.90
4697;DHT22;2362;50.780;0.292;2022-09-27T16:16:42;13.50;99.90
4697;DHT22;2362;50.780;0.292;2022-09-27T16:19:08;13.50;99.90
4697;DHT22;2362;50.780;0.292;2022-09-27T16:21:33;13.50;99.90
4697;DHT22;2362;50.780;0.292;2022-09-27T16:23:59;13.50;99.90
4697;DHT22;2362;50.780;0.292;2022-09-27T16:26:27;13.40;99.90
4697;DHT22;2362;50.780;0.292;2022-09-27T16:28:52;13.40;99.90
4697;DHT22;2362;50.780;0.292;2022-09-27T16:31:18;13.40;99.90
4697;DHT22;2362;50.780;0.292;2022-09-27T16:33:46;13.50;99.90
4697;DHT22;2362;50.780;0.292;2022-09-27T16:36:12;13.50;99.90
4697;DHT22;2362;50.780;0.292;2022-09-27T16:38:41;13.40;99.90
4697;DHT22;2362;50.780;0.292;2022-09-27T16:41:07;13.40;99.90
4697;DHT22;2362;50.780;0.292;2022-09-27T16:43:33;13.40;99.90
4697;DHT22;2362;50.780;0.292;2022-09-27T16:46:02;13.40;99.90
4697;DHT22;2362;50.780;0.292;2022-09-27T16:48:28;13.30;99.90
4697;DHT22;2362;50.780;0.292;2022-09-27T16:50:54;13.20;99.90
4697;DHT22;2362;50.780;0.292;2022-09-27T16:53:38;13.10;99.90
4697;DHT22;2362;50.780;0.292;2022-09-27T16:56:04;13.00;99.90
4697;DHT22;2362;50.780;0.292;2022-09-27T16:58:30;12.90;99.90
4697;DHT22;2362;50.780;0.292;2022-09-27T17:00:56;12.80;99.90
4697;DHT22;2362;50.780;0.292;2022-09-27T17:03:22;12.70;99.90
4697;DHT22;2362;50.780;0.292;2022-09-27T17:05:48;12.70;99.90
4697;DHT22;2362;50.780;0.292;2022-09-27T17:08:14;12.60;99.90
4697;DHT22;2362;50.780;0.292;2022-09-27T17:10:42;12.50;99.90
4697;DHT22;2362;50.780;0.292;2022-09-27T17:13:08;12.40;99.90
4697;DHT22;2362;50.780;0.292;2022-09-27T17:15:37;12.30;99.90
4697;DHT22;2362;50.780;0.292;2022-09-27T17:18:03;12.30;99.90
4697;DHT22;2362;50.780;0.292;2022-09-27T17:20:29;12.30;99.90
4697;DHT22;2362;50.780;0.292;2022-09-27T17:22:55;12.40;99.90
4697;DHT22;2362;50.780;0.292;2022-09-27T17:25:20;12.40;99.90
4697;DHT22;2362;50.780;0.292;2022-09-27T17:27:46;12.50;99.90
4697;DHT22;2362;50.780;0.292;2022-09-27T17:30:12;12.50;99.90
4697;DHT22;2362;50.780;0.292;2022-09-27T17:32:38;12.40;99.90
4697;DHT22;2362;50.780;0.292;2022-09-27T17:35:04;12.30;99.90
4697;DHT22;2362;50.780;0.292;2022-09-27T17:37:33;12.30;99.90
4697;DHT22;2362;50.780;0.292;2022-09-27T17:40:00;12.20;99.90
4697;DHT22;2362;50.780;0.292;2022-09-27T17:42:26;12.10;99.90
4697;DHT22;2362;50.780;0.292;2022-09-27T17:44:53;12.00;99.90
4697;DHT22;2362;50.780;0.292;2022-09-27T17:47:18;11.90;99.90
4697;DHT22;2362;50.780;0.292;2022-09-27T17:50:03;11.90;99.90
4697;DHT22;2362;50.780;0.292;2022-09-27T17:52:47;11.90;99.90
4697;DHT22;2362;50.780;0.292;2022-09-27T17:55:13;11.90;99.90
4697;DHT22;2362;50.780;0.292;2022-09-27T17:57:39;11.90;99.90
4697;DHT22;2362;50.780;0.292;2022-09-27T18:00:05;12.00;99.90
4697;DHT22;2362;50.780;0.292;2022-09-27T18:02:31;12.10;99.90
4697;DHT22;2362;50.780;0.292;2022-09-27T18:04:57;12.10;99.90
4697;DHT22;2362;50.780;0.292;2022-09-27T18:07:22;12.10;99.90
4697;DHT22;2362;50.780;0.292;2022-09-27T18:09:48;12.10;99.90
4697;DHT22;2362;50.780;0.292;2022-09-27T18:12:15;12.10;99.90
4697;DHT22;2362;50.780;0.292;2022-09-27T18:14:41;12.20;99.90
4697;DHT22;2362;50.780;0.292;2022-09-27T18:17:07;12.20;99.90
4697;DHT22;2362;50.780;0.292;2022-09-27T18:19:40;12.20;99.90
4697;DHT22;2362;50.780;0.292;2022-09-27T18:22:05;12.10;99.90
4697;DHT22;2362;50.780;0.292;2022-09-27T18:24:31;12.20;99.90
4697;DHT22;2362;50.780;0.292;2022-09-27T18:26:57;12.10;99.90
4697;DHT22;2362;50.780;0.292;2022-09-27T18:29:24;12.10;99.90
4697;DHT22;2362;50.780;0.292;2022-09-27T18:31:50;12.00;99.90
4697;DHT22;2362;50.780;0.292;2022-09-27T18:34:16;12.00;99.90
4697;DHT22;2362;50.780;0.292;2022-09-27T18:36:41;12.00;99.90
4697;DHT22;2362;50.780;0.292;2022-09-27T18:39:09;12.00;99.90
4697;DHT22;2362;50.780;0.292;2022-09-27T18:41:35;12.00;99.90
4697;DHT22;2362;50.780;0.292;2022-09-27T18:44:01;11.90;99.90
4697;DHT22;2362;50.780;0.292;2022-09-27T18:46:28;11.80;99.90
4697;DHT22;2362;50.780;0.292;2022-09-27T18:48:57;11.70;99.90
4697;DHT22;2362;50.780;0.292;2022-09-27T18:51:23;11.60;99.90
4697;DHT22;2362;50.780;0.292;2022-09-27T18:53:54;11.60;99.90
4697;DHT22;2362;50.780;0.292;2022-09-27T18:56:20;11.50;99.90
4697;DHT22;2362;50.780;0.292;2022-09-27T18:58:46;11.50;99.90
4697;DHT22;2362;50.780;0.292;2022-09-27T19:01:13;11.40;99.90
4697;DHT22;2362;50.780;0.292;2022-09-27T19:03:39;11.40;99.90
4697;DHT22;2362;50.780;0.292;2022-09-27T19:06:06;11.30;99.90
4697;DHT22;2362;50.780;0.292;2022-09-27T19:08:32;11.30;99.90